Greenacres, Washington
Current Conditions -  °F | °C
As of 3:53 PM on Thursday 18 Dec 2014 (Local Time) from KSFF Reporting Station
Overcast Overcast  
Wind Chill: 41°   Ceiling: 5500
Heat Index: 41°   Visibility: 7mi
Dew Point: 37°   Wind: 0mph
Humidity: 86%   Direction: NA
Pressure: 29.98"   Gusts: NA
Location:  47.67°N, 117.16°W
Report Text: KSFF 182353Z 00000KT 7SM OVC055 05/03 A2998 RMK AO2 SLP163 T00500028 10061 20044 55003
Loading
Personal Weather Stations






























Interactive Weather Map New forecast layout! Learn more

10-Day Weather Forecast

Advertisements
Track Severe Weather on mobile